PWSweather.com
Personal Weather Stations
Station Observations
KMIEASTT1
Tawas Bay, East Tawas, MI 48730

Tawas BayEast Tawas, MI 48730

Lat: 44.28, Lon: -83.48

Elevation: 600

Station Type: Davis VantagePro

http://www.tawasbayweather.com

High Low Average
Temperature 46.5°F8.1°C 37.5°F3.1°C 40.5°F4.7°C
Dew Point 44.7°F7.1°C 34.8°F1.6°C 38.5°F3.6°C
Winds 30.0 mph 48.3 kmh Calm Calm 5.0 mph SE8.0 kmh SE
Wind Gusts 37.0 mph59.5 kmh -- 8.0 mph12.9 kmh
Humidity 98% 81% 92%
Pressure 29.95 in1014.2 mb 29.35 in993.9 mb -
Precipitation 0.00 in0.0 mm - -
Hour Temp Dew Point Humidity Winds Wind Gusts Pressure Precip Precip Rate Daily Precip Total
12:00 AM 38.1°F3.4°C 37.3°F2.9°C 97% Calm Calm 1.0 mph1.6 kmh 29.96 in1014.6 mb 0.00 in0.0 mm 0.00 in0.0 mm 0.00 in0.0 mm
12:15 AM 38.6°F3.7°C 37.8°F3.2°C 97% Calm Calm 1.0 mph1.6 kmh 29.95 in1014.2 mb 0.00 in0.0 mm 0.00 in0.0 mm 0.00 in0.0 mm
12:30 AM 38.8°F3.8°C 38.0°F3.3°C 97% Calm Calm -- 29.95 in1014.2 mb 0.00 in0.0 mm 0.00 in0.0 mm 0.00 in0.0 mm
12:45 AM 38.7°F3.7°C 37.9°F3.3°C 97% Calm Calm 1.0 mph1.6 kmh 29.96 in1014.6 mb 0.00 in0.0 mm 0.00 in0.0 mm 0.00 in0.0 mm
01:00 AM 38.5°F3.6°C 37.7°F3.2°C 97% Calm Calm -- 29.95 in1014.2 mb 0.00 in0.0 mm 0.00 in0.0 mm 0.00 in0.0 mm
01:15 AM 38.0°F3.3°C 37.0°F2.8°C 96% Calm Calm 2.0 mph3.2 kmh 29.94 in1013.9 mb 0.00 in0.0 mm 0.00 in0.0 mm 0.00 in0.0 mm
01:30 AM 37.9°F3.3°C 37.1°F2.8°C 97% Calm Calm -- 29.95 in1014.2 mb 0.00 in0.0 mm 0.00 in0.0 mm 0.00 in0.0 mm
01:45 AM 38.1°F3.4°C 37.3°F2.9°C 97% Calm Calm 1.0 mph1.6 kmh 29.94 in1013.9 mb 0.00 in0.0 mm 0.00 in0.0 mm 0.00 in0.0 mm
02:00 AM 38.1°F3.4°C 37.3°F2.9°C 97% 1.0 mph ENE1.6 kmh ENE 3.0 mph4.8 kmh 29.93 in1013.5 mb 0.00 in0.0 mm 0.00 in0.0 mm 0.00 in0.0 mm
02:15 AM 39.0°F3.9°C 38.2°F3.4°C 97% 5.0 mph E8.0 kmh E 7.0 mph11.3 kmh 29.92 in1013.2 mb 0.00 in0.0 mm 0.00 in0.0 mm 0.00 in0.0 mm
02:30 AM 38.8°F3.8°C 38.0°F3.3°C 97% 6.0 mph E9.7 kmh E 8.0 mph12.9 kmh 29.90 in1012.5 mb 0.00 in0.0 mm 0.00 in0.0 mm 0.00 in0.0 mm
02:45 AM 38.5°F3.6°C 37.5°F3.1°C 96% 7.0 mph E11.3 kmh E 9.0 mph14.5 kmh 29.89 in1012.2 mb 0.00 in0.0 mm 0.00 in0.0 mm 0.00 in0.0 mm
03:00 AM 38.7°F3.7°C 37.7°F3.2°C 96% 3.0 mph ENE4.8 kmh ENE 8.0 mph12.9 kmh 29.89 in1012.2 mb 0.00 in0.0 mm 0.00 in0.0 mm 0.00 in0.0 mm
03:15 AM 38.6°F3.7°C 37.6°F3.1°C 96% 1.0 mph E1.6 kmh E 5.0 mph8.0 kmh 29.89 in1012.2 mb 0.00 in0.0 mm 0.00 in0.0 mm 0.00 in0.0 mm
03:30 AM 37.8°F3.2°C 36.5°F2.5°C 95% 5.0 mph E8.0 kmh E 7.0 mph11.3 kmh 29.88 in1011.9 mb 0.00 in0.0 mm 0.00 in0.0 mm 0.00 in0.0 mm
03:45 AM 38.2°F3.4°C 37.2°F2.9°C 96% Calm Calm 5.0 mph8.0 kmh 29.86 in1011.2 mb 0.00 in0.0 mm 0.00 in0.0 mm 0.00 in0.0 mm
04:00 AM 38.5°F3.6°C 37.2°F2.9°C 95% Calm Calm 2.0 mph3.2 kmh 29.85 in1010.8 mb 0.00 in0.0 mm 0.00 in0.0 mm 0.00 in0.0 mm
04:15 AM 38.7°F3.7°C 36.9°F2.7°C 93% 4.0 mph ESE6.4 kmh ESE 8.0 mph12.9 kmh 29.84 in1010.5 mb 0.00 in0.0 mm 0.00 in0.0 mm 0.00 in0.0 mm
04:30 AM 37.9°F3.3°C 36.3°F2.4°C 94% Calm Calm 2.0 mph3.2 kmh 29.83 in1010.2 mb 0.00 in0.0 mm 0.00 in0.0 mm 0.00 in0.0 mm
04:45 AM 38.4°F3.6°C 36.6°F2.6°C 93% Calm Calm 3.0 mph4.8 kmh 29.82 in1009.8 mb 0.00 in0.0 mm 0.00 in0.0 mm 0.00 in0.0 mm
05:00 AM 38.9°F3.8°C 36.8°F2.7°C 92% 2.0 mph E3.2 kmh E 6.0 mph9.7 kmh 29.80 in1009.1 mb 0.00 in0.0 mm 0.00 in0.0 mm 0.00 in0.0 mm
05:15 AM 39.3°F4.1°C 36.6°F2.6°C 90% 5.0 mph E8.0 kmh E 7.0 mph11.3 kmh 29.80 in1009.1 mb 0.00 in0.0 mm 0.00 in0.0 mm 0.00 in0.0 mm
05:30 AM 38.8°F3.8°C 36.1°F2.3°C 90% 2.0 mph E3.2 kmh E 3.0 mph4.8 kmh 29.80 in1009.1 mb 0.00 in0.0 mm 0.00 in0.0 mm 0.00 in0.0 mm
05:45 AM 39.3°F4.1°C 36.3°F2.4°C 89% 1.0 mph E1.6 kmh E 2.0 mph3.2 kmh 29.80 in1009.1 mb 0.00 in0.0 mm 0.00 in0.0 mm 0.00 in0.0 mm
06:00 AM 39.9°F4.4°C 36.6°F2.6°C 88% Calm Calm 5.0 mph8.0 kmh 29.79 in1008.8 mb 0.00 in0.0 mm 0.00 in0.0 mm 0.00 in0.0 mm
06:15 AM 40.0°F4.4°C 36.5°F2.5°C 87% 5.0 mph E8.0 kmh E 6.0 mph9.7 kmh 29.77 in1008.1 mb 0.00 in0.0 mm 0.00 in0.0 mm 0.00 in0.0 mm
06:30 AM 39.8°F4.3°C 36.3°F2.4°C 87% 6.0 mph E9.7 kmh E 8.0 mph12.9 kmh 29.75 in1007.5 mb 0.00 in0.0 mm 0.00 in0.0 mm 0.00 in0.0 mm
06:45 AM 39.3°F4.1°C 35.2°F1.8°C 85% 5.0 mph E8.0 kmh E 6.0 mph9.7 kmh 29.75 in1007.5 mb 0.00 in0.0 mm 0.00 in0.0 mm 0.00 in0.0 mm
07:00 AM 39.2°F4.0°C 36.0°F2.2°C 88% 1.0 mph E1.6 kmh E 6.0 mph9.7 kmh 29.73 in1006.8 mb 0.00 in0.0 mm 0.00 in0.0 mm 0.00 in0.0 mm
07:15 AM 39.5°F4.2°C 35.7°F2.1°C 86% 5.0 mph ESE8.0 kmh ESE 8.0 mph12.9 kmh 29.73 in1006.8 mb 0.00 in0.0 mm 0.00 in0.0 mm 0.00 in0.0 mm
07:30 AM 39.3°F4.1°C 36.1°F2.3°C 88% 6.0 mph S9.7 kmh S 6.0 mph9.7 kmh 29.73 in1006.8 mb 0.00 in0.0 mm 0.00 in0.0 mm 0.00 in0.0 mm
07:45 AM 39.8°F4.3°C 36.3°F2.4°C 87% 6.0 mph S9.7 kmh S 12.0 mph19.3 kmh 29.73 in1006.8 mb 0.00 in0.0 mm 0.00 in0.0 mm 0.00 in0.0 mm
08:00 AM 38.0°F3.3°C 34.8°F1.6°C 88% Calm Calm 2.0 mph3.2 kmh 29.73 in1006.8 mb 0.00 in0.0 mm 0.00 in0.0 mm 0.00 in0.0 mm
08:15 AM 37.8°F3.2°C 35.1°F1.7°C 90% Calm Calm 2.0 mph3.2 kmh 29.72 in1006.4 mb 0.00 in0.0 mm 0.00 in0.0 mm 0.00 in0.0 mm
08:30 AM 39.3°F4.1°C 36.6°F2.6°C 90% 7.0 mph S11.3 kmh S 13.0 mph20.9 kmh 29.72 in1006.4 mb 0.00 in0.0 mm 0.00 in0.0 mm 0.00 in0.0 mm
08:45 AM 39.2°F4.0°C 36.2°F2.3°C 89% 3.0 mph S4.8 kmh S 7.0 mph11.3 kmh 29.71 in1006.1 mb 0.00 in0.0 mm 0.00 in0.0 mm 0.00 in0.0 mm
09:00 AM 38.3°F3.5°C 35.4°F1.9°C 89% 3.0 mph S4.8 kmh S 5.0 mph8.0 kmh 29.72 in1006.4 mb 0.00 in0.0 mm 0.00 in0.0 mm 0.00 in0.0 mm
09:15 AM 38.3°F3.5°C 35.4°F1.9°C 89% Calm Calm -- 29.71 in1006.1 mb 0.00 in0.0 mm 0.00 in0.0 mm 0.00 in0.0 mm
09:30 AM 38.9°F3.8°C 36.2°F2.3°C 90% 2.0 mph ESE3.2 kmh ESE 3.0 mph4.8 kmh 29.70 in1005.8 mb 0.00 in0.0 mm 0.00 in0.0 mm 0.00 in0.0 mm
09:45 AM 38.7°F3.7°C 36.0°F2.2°C 90% 1.0 mph E1.6 kmh E 2.0 mph3.2 kmh 29.69 in1005.4 mb 0.01 in0.3 mm 0.04 in1.0 mm 0.01 in0.3 mm
10:00 AM 38.0°F3.3°C 35.3°F1.8°C 90% 2.0 mph SE3.2 kmh SE 3.0 mph4.8 kmh 29.70 in1005.8 mb 0.02 in0.5 mm 0.01 in0.3 mm 0.02 in0.5 mm
10:15 AM 37.5°F3.1°C 35.1°F1.7°C 91% 2.0 mph SSE3.2 kmh SSE 3.0 mph4.8 kmh 29.68 in1005.1 mb 0.02 in0.5 mm 0.00 in0.0 mm 0.02 in0.5 mm
10:30 AM 37.8°F3.2°C 35.4°F1.9°C 91% Calm Calm 2.0 mph3.2 kmh 29.66 in1004.4 mb 0.02 in0.5 mm 0.00 in0.0 mm 0.02 in0.5 mm
10:45 AM 37.8°F3.2°C 35.7°F2.1°C 92% Calm Calm 2.0 mph3.2 kmh 29.66 in1004.4 mb 0.02 in0.5 mm 0.00 in0.0 mm 0.02 in0.5 mm
11:00 AM 38.6°F3.7°C 36.2°F2.3°C 91% 3.0 mph S4.8 kmh S 5.0 mph8.0 kmh 29.66 in1004.4 mb 0.00 in0.0 mm 0.00 in0.0 mm 0.02 in0.5 mm
11:15 AM 40.2°F4.6°C 37.8°F3.2°C 91% Calm Calm -- 29.64 in1003.7 mb 0.00 in0.0 mm 0.00 in0.0 mm 0.02 in0.5 mm
11:30 AM 39.5°F4.2°C 36.8°F2.7°C 90% 1.0 mph SE1.6 kmh SE 3.0 mph4.8 kmh 29.65 in1004.1 mb 0.00 in0.0 mm 0.00 in0.0 mm 0.02 in0.5 mm
11:45 AM 39.7°F4.3°C 37.3°F2.9°C 91% 2.0 mph E3.2 kmh E 3.0 mph4.8 kmh 29.63 in1003.4 mb 0.00 in0.0 mm 0.00 in0.0 mm 0.02 in0.5 mm
12:00 PM 40.4°F4.7°C 38.3°F3.5°C 92% 3.0 mph SE4.8 kmh SE 3.0 mph4.8 kmh 29.63 in1003.4 mb 0.00 in0.0 mm 0.00 in0.0 mm 0.02 in0.5 mm
12:15 PM 40.8°F4.9°C 38.4°F3.6°C 91% 1.0 mph SE1.6 kmh SE 4.0 mph6.4 kmh 29.64 in1003.7 mb 0.00 in0.0 mm 0.00 in0.0 mm 0.02 in0.5 mm
12:30 PM 41.4°F5.2°C 39.0°F3.9°C 91% Calm Calm -- 29.64 in1003.7 mb 0.00 in0.0 mm 0.00 in0.0 mm 0.02 in0.5 mm
12:45 PM 41.6°F5.3°C 39.2°F4.0°C 91% Calm Calm 1.0 mph1.6 kmh 29.64 in1003.7 mb 0.00 in0.0 mm 0.00 in0.0 mm 0.02 in0.5 mm
01:00 PM 42.9°F6.1°C 40.5°F4.7°C 91% 2.0 mph SE3.2 kmh SE 3.0 mph4.8 kmh 29.64 in1003.7 mb 0.00 in0.0 mm 0.00 in0.0 mm 0.02 in0.5 mm
01:15 PM 41.7°F5.4°C 39.3°F4.1°C 91% 6.0 mph SE9.7 kmh SE 6.0 mph9.7 kmh 29.63 in1003.4 mb 0.00 in0.0 mm 0.00 in0.0 mm 0.02 in0.5 mm
01:30 PM 41.2°F5.1°C 39.3°F4.1°C 93% 4.0 mph SSE6.4 kmh SSE 6.0 mph9.7 kmh 29.63 in1003.4 mb 0.00 in0.0 mm 0.00 in0.0 mm 0.02 in0.5 mm
01:45 PM 39.5°F4.2°C 37.9°F3.3°C 94% Calm Calm 3.0 mph4.8 kmh 29.62 in1003.0 mb 0.00 in0.0 mm 0.00 in0.0 mm 0.02 in0.5 mm
02:00 PM 39.5°F4.2°C 37.9°F3.3°C 94% 3.0 mph ESE4.8 kmh ESE 3.0 mph4.8 kmh 29.61 in1002.7 mb 0.00 in0.0 mm 0.00 in0.0 mm 0.02 in0.5 mm
02:15 PM 37.9°F3.3°C 36.6°F2.6°C 95% 7.0 mph E11.3 kmh E 9.0 mph14.5 kmh 29.58 in1001.7 mb 0.00 in0.0 mm 0.00 in0.0 mm 0.02 in0.5 mm
02:30 PM 39.1°F3.9°C 38.1°F3.4°C 96% 7.0 mph E11.3 kmh E 8.0 mph12.9 kmh 29.55 in1000.7 mb 0.00 in0.0 mm 0.00 in0.0 mm 0.02 in0.5 mm
02:45 PM 39.1°F3.9°C 38.1°F3.4°C 96% 5.0 mph E8.0 kmh E 5.0 mph8.0 kmh 29.52 in999.7 mb 0.00 in0.0 mm 0.00 in0.0 mm 0.02 in0.5 mm
03:00 PM 40.1°F4.5°C 39.1°F3.9°C 96% Calm Calm -- 29.51 in999.3 mb 0.00 in0.0 mm 0.00 in0.0 mm 0.02 in0.5 mm
03:15 PM 40.5°F4.7°C 39.5°F4.2°C 96% 10.0 mph SSE16.1 kmh SSE 20.0 mph32.2 kmh 29.49 in998.6 mb 0.00 in0.0 mm 0.00 in0.0 mm 0.02 in0.5 mm
03:30 PM 41.1°F5.1°C 39.8°F4.3°C 95% 4.0 mph SE6.4 kmh SE 8.0 mph12.9 kmh 29.47 in998.0 mb 0.00 in0.0 mm 0.00 in0.0 mm 0.02 in0.5 mm
03:45 PM 42.5°F5.8°C 41.4°F5.2°C 96% 13.0 mph W20.9 kmh W 13.0 mph20.9 kmh 29.51 in999.3 mb 0.00 in0.0 mm 0.00 in0.0 mm 0.02 in0.5 mm
04:00 PM 45.9°F7.7°C 44.3°F6.8°C 94% 4.0 mph SW6.4 kmh SW 11.0 mph17.7 kmh 29.53 in1000.0 mb 0.02 in0.5 mm 0.03 in0.8 mm 0.04 in1.0 mm
04:15 PM 46.5°F8.1°C 44.3°F6.8°C 92% 7.0 mph SSE11.3 kmh SSE 13.0 mph20.9 kmh 29.48 in998.3 mb 0.02 in0.5 mm 0.00 in0.0 mm 0.04 in1.0 mm
04:30 PM 44.1°F6.7°C 41.9°F5.5°C 92% 7.0 mph S11.3 kmh S 9.0 mph14.5 kmh 29.48 in998.3 mb 0.02 in0.5 mm 0.00 in0.0 mm 0.04 in1.0 mm
04:45 PM 43.6°F6.4°C 42.0°F5.6°C 94% 5.0 mph WSW8.0 kmh WSW 8.0 mph12.9 kmh 29.46 in997.6 mb 0.03 in0.8 mm 0.04 in1.0 mm 0.05 in1.3 mm
05:00 PM 46.0°F7.8°C 44.7°F7.1°C 95% 3.0 mph SW4.8 kmh SW 15.0 mph24.1 kmh 29.47 in998.0 mb 0.05 in1.3 mm 0.03 in0.8 mm 0.07 in1.8 mm
05:15 PM 43.9°F6.6°C 42.0°F5.6°C 93% 3.0 mph S4.8 kmh S 8.0 mph12.9 kmh 29.45 in997.3 mb 0.05 in1.3 mm 0.00 in0.0 mm 0.07 in1.8 mm
05:30 PM 43.9°F6.6°C 42.6°F5.9°C 95% 6.0 mph S9.7 kmh S 11.0 mph17.7 kmh 29.43 in996.6 mb 0.04 in1.0 mm 0.00 in0.0 mm 0.07 in1.8 mm
05:45 PM 44.7°F7.1°C 43.4°F6.3°C 95% 15.0 mph S24.1 kmh S 19.0 mph30.6 kmh 29.41 in995.9 mb 0.04 in1.0 mm 0.00 in0.0 mm 0.07 in1.8 mm
06:00 PM 43.5°F6.4°C 42.2°F5.7°C 95% 6.0 mph SE9.7 kmh SE 9.0 mph14.5 kmh 29.40 in995.6 mb 0.02 in0.5 mm 0.00 in0.0 mm 0.07 in1.8 mm
06:15 PM 41.4°F5.2°C 40.1°F4.5°C 95% 1.0 mph S1.6 kmh S 4.0 mph6.4 kmh 29.38 in994.9 mb 0.02 in0.5 mm 0.00 in0.0 mm 0.07 in1.8 mm
06:30 PM 42.5°F5.8°C 41.4°F5.2°C 96% 9.0 mph SE14.5 kmh SE 15.0 mph24.1 kmh 29.37 in994.6 mb 0.00 in0.0 mm 0.00 in0.0 mm 0.07 in1.8 mm
06:45 PM 39.5°F4.2°C 38.2°F3.4°C 95% 7.0 mph SE11.3 kmh SE 9.0 mph14.5 kmh 29.37 in994.6 mb 0.00 in0.0 mm 0.00 in0.0 mm 0.07 in1.8 mm
07:00 PM 39.1°F3.9°C 38.1°F3.4°C 96% 5.0 mph SE8.0 kmh SE 8.0 mph12.9 kmh 29.36 in994.2 mb 0.00 in0.0 mm 0.00 in0.0 mm 0.07 in1.8 mm
07:15 PM 42.1°F5.6°C 41.3°F5.2°C 97% Calm Calm 5.0 mph8.0 kmh 29.37 in994.6 mb 0.00 in0.0 mm 0.00 in0.0 mm 0.07 in1.8 mm
07:30 PM 43.8°F6.6°C 43.0°F6.1°C 97% 4.0 mph S6.4 kmh S 5.0 mph8.0 kmh 29.37 in994.6 mb 0.05 in1.3 mm 0.20 in5.1 mm 0.12 in3.0 mm
07:45 PM 43.0°F6.1°C 42.2°F5.7°C 97% 10.0 mph S16.1 kmh S 14.0 mph22.5 kmh 29.38 in994.9 mb 0.18 in4.6 mm 0.52 in13.2 mm 0.25 in6.4 mm
08:00 PM 44.4°F6.9°C 43.6°F6.4°C 97% 5.0 mph SW8.0 kmh SW 8.0 mph12.9 kmh 29.38 in994.9 mb 0.20 in5.1 mm 0.03 in0.8 mm 0.27 in6.9 mm
08:15 PM 43.9°F6.6°C 43.1°F6.2°C 97% 3.0 mph WSW4.8 kmh WSW 10.0 mph16.1 kmh 29.37 in994.6 mb 0.21 in5.3 mm 0.04 in1.0 mm 0.28 in7.1 mm
08:30 PM 43.7°F6.5°C 42.9°F6.1°C 97% Calm Calm 1.0 mph1.6 kmh 29.37 in994.6 mb 0.16 in4.1 mm 0.00 in0.0 mm 0.28 in7.1 mm
08:45 PM 43.1°F6.2°C 42.3°F5.7°C 97% Calm Calm -- 29.37 in994.6 mb 0.16 in4.1 mm 0.00 in0.0 mm 0.28 in7.1 mm
09:00 PM 43.1°F6.2°C 42.3°F5.7°C 97% Calm Calm -- 29.35 in993.9 mb 0.01 in0.3 mm 0.00 in0.0 mm 0.28 in7.1 mm
09:15 PM 40.2°F4.6°C 39.2°F4.0°C 96% 3.0 mph ESE4.8 kmh ESE 5.0 mph8.0 kmh 29.37 in994.6 mb 0.01 in0.3 mm 0.00 in0.0 mm 0.28 in7.1 mm
09:30 PM 38.4°F3.6°C 37.6°F3.1°C 97% Calm Calm -- 29.36 in994.2 mb 0.00 in0.0 mm 0.00 in0.0 mm 0.28 in7.1 mm
09:45 PM 38.9°F3.8°C 38.1°F3.4°C 97% Calm Calm 2.0 mph3.2 kmh 29.37 in994.6 mb 0.00 in0.0 mm 0.00 in0.0 mm 0.28 in7.1 mm
10:00 PM 37.5°F3.1°C 36.7°F2.6°C 97% 1.0 mph SW1.6 kmh SW 3.0 mph4.8 kmh 29.38 in994.9 mb 0.00 in0.0 mm 0.00 in0.0 mm 0.28 in7.1 mm
10:15 PM 37.8°F3.2°C 37.0°F2.8°C 97% 5.0 mph S8.0 kmh S 7.0 mph11.3 kmh 29.38 in994.9 mb 0.00 in0.0 mm 0.00 in0.0 mm 0.28 in7.1 mm
10:30 PM 41.9°F5.5°C 41.4°F5.2°C 98% 14.0 mph SW22.5 kmh SW 15.0 mph24.1 kmh 29.38 in994.9 mb 0.00 in0.0 mm 0.00 in0.0 mm 0.28 in7.1 mm
10:45 PM 45.8°F7.7°C 44.7°F7.1°C 96% 26.0 mph W41.8 kmh W 30.0 mph48.3 kmh 29.39 in995.3 mb 0.00 in0.0 mm 0.00 in0.0 mm 0.28 in7.1 mm
11:00 PM 45.2°F7.3°C 39.7°F4.3°C 81% 28.0 mph WSW45.1 kmh WSW 37.0 mph59.5 kmh 29.39 in995.3 mb 0.00 in0.0 mm 0.00 in0.0 mm 0.28 in7.1 mm
11:15 PM 44.1°F6.7°C 39.0°F3.9°C 82% 22.0 mph WSW35.4 kmh WSW 32.0 mph51.5 kmh 29.41 in995.9 mb 0.00 in0.0 mm 0.00 in0.0 mm 0.28 in7.1 mm
11:30 PM 43.5°F6.4°C 38.7°F3.7°C 83% 30.0 mph W48.3 kmh W 30.0 mph48.3 kmh 29.41 in995.9 mb 0.00 in0.0 mm 0.00 in0.0 mm 0.28 in7.1 mm
11:45 PM 42.9°F6.1°C 38.1°F3.4°C 83% 19.0 mph WSW30.6 kmh WSW 25.0 mph40.2 kmh 29.42 in996.3 mb 0.00 in0.0 mm 0.00 in0.0 mm 0.28 in7.1 mm